sensor_id;sensor_type;location;lat;lon;timestamp;P1;durP1;ratioP1;P2;durP2;ratioP2
3991;SDS011;2010;48.194;16.394;2023-02-01T00:00:52;2.80;;;2.60;;
3991;SDS011;2010;48.194;16.394;2023-02-01T00:03:30;2.23;;;2.03;;
3991;SDS011;2010;48.194;16.394;2023-02-01T00:06:00;2.10;;;2.00;;
3991;SDS011;2010;48.194;16.394;2023-02-01T00:08:40;2.07;;;1.97;;
3991;SDS011;2010;48.194;16.394;2023-02-01T00:11:12;2.07;;;1.63;;
3991;SDS011;2010;48.194;16.394;2023-02-01T00:13:49;2.47;;;2.27;;
3991;SDS011;2010;48.194;16.394;2023-02-01T00:16:20;1.87;;;1.70;;
3991;SDS011;2010;48.194;16.394;2023-02-01T00:18:52;1.83;;;1.63;;
3991;SDS011;2010;48.194;16.394;2023-02-01T00:21:27;1.97;;;1.87;;
3991;SDS011;2010;48.194;16.394;2023-02-01T00:23:58;3.20;;;1.90;;
3991;SDS011;2010;48.194;16.394;2023-02-01T00:26:30;2.77;;;1.63;;
3991;SDS011;2010;48.194;16.394;2023-02-01T00:29:02;2.63;;;1.80;;
3991;SDS011;2010;48.194;16.394;2023-02-01T00:31:35;2.07;;;1.97;;
3991;SDS011;2010;48.194;16.394;2023-02-01T00:34:10;1.80;;;1.67;;
3991;SDS011;2010;48.194;16.394;2023-02-01T00:36:46;2.37;;;1.73;;
3991;SDS011;2010;48.194;16.394;2023-02-01T00:39:18;1.73;;;1.63;;
3991;SDS011;2010;48.194;16.394;2023-02-01T00:41:55;2.23;;;2.00;;
3991;SDS011;2010;48.194;16.394;2023-02-01T00:44:25;2.57;;;2.33;;
3991;SDS011;2010;48.194;16.394;2023-02-01T00:46:57;2.43;;;2.23;;
3991;SDS011;2010;48.194;16.394;2023-02-01T00:49:28;4.43;;;2.47;;
3991;SDS011;2010;48.194;16.394;2023-02-01T00:51:57;2.70;;;2.50;;
3991;SDS011;2010;48.194;16.394;2023-02-01T00:54:29;2.03;;;1.87;;
3991;SDS011;2010;48.194;16.394;2023-02-01T00:57:00;2.30;;;2.10;;
3991;SDS011;2010;48.194;16.394;2023-02-01T00:59:33;3.23;;;2.60;;
3991;SDS011;2010;48.194;16.394;2023-02-01T01:02:04;4.10;;;2.77;;
3991;SDS011;2010;48.194;16.394;2023-02-01T01:04:43;3.20;;;2.90;;
3991;SDS011;2010;48.194;16.394;2023-02-01T01:07:13;2.93;;;2.67;;
3991;SDS011;2010;48.194;16.394;2023-02-01T01:09:46;3.10;;;2.80;;
3991;SDS011;2010;48.194;16.394;2023-02-01T01:12:15;3.53;;;3.07;;
3991;SDS011;2010;48.194;16.394;2023-02-01T01:14:47;2.57;;;2.43;;
3991;SDS011;2010;48.194;16.394;2023-02-01T01:17:19;4.03;;;2.47;;
3991;SDS011;2010;48.194;16.394;2023-02-01T01:19:51;3.40;;;3.10;;
3991;SDS011;2010;48.194;16.394;2023-02-01T01:22:20;2.40;;;2.20;;
3991;SDS011;2010;48.194;16.394;2023-02-01T01:24:49;5.03;;;3.03;;
3991;SDS011;2010;48.194;16.394;2023-02-01T01:27:20;3.00;;;2.80;;
3991;SDS011;2010;48.194;16.394;2023-02-01T01:29:52;3.13;;;2.40;;
3991;SDS011;2010;48.194;16.394;2023-02-01T01:32:26;3.63;;;2.13;;
3991;SDS011;2010;48.194;16.394;2023-02-01T01:35:18;2.20;;;2.00;;
3991;SDS011;2010;48.194;16.394;2023-02-01T01:37:50;1.70;;;1.60;;
3991;SDS011;2010;48.194;16.394;2023-02-01T01:40:25;2.30;;;2.10;;
3991;SDS011;2010;48.194;16.394;2023-02-01T01:43:01;2.70;;;2.00;;
3991;SDS011;2010;48.194;16.394;2023-02-01T01:45:33;2.20;;;2.00;;
3991;SDS011;2010;48.194;16.394;2023-02-01T01:48:05;3.03;;;2.20;;
3991;SDS011;2010;48.194;16.394;2023-02-01T01:50:54;3.67;;;1.93;;
3991;SDS011;2010;48.194;16.394;2023-02-01T01:53:28;2.07;;;1.90;;
3991;SDS011;2010;48.194;16.394;2023-02-01T01:56:02;2.47;;;2.30;;
3991;SDS011;2010;48.194;16.394;2023-02-01T01:58:31;2.30;;;2.20;;
3991;SDS011;2010;48.194;16.394;2023-02-01T02:01:04;3.33;;;2.53;;
3991;SDS011;2010;48.194;16.394;2023-02-01T02:03:44;2.83;;;2.47;;
3991;SDS011;2010;48.194;16.394;2023-02-01T02:06:22;3.20;;;3.00;;
3991;SDS011;2010;48.194;16.394;2023-02-01T02:08:59;3.53;;;2.40;;
3991;SDS011;2010;48.194;16.394;2023-02-01T02:11:34;6.80;;;2.37;;
3991;SDS011;2010;48.194;16.394;2023-02-01T02:14:02;2.67;;;2.47;;
3991;SDS011;2010;48.194;16.394;2023-02-01T02:17:03;2.80;;;2.60;;
3991;SDS011;2010;48.194;16.394;2023-02-01T02:20:19;3.00;;;2.80;;
3991;SDS011;2010;48.194;16.394;2023-02-01T02:35:32;2.00;;;1.90;;
3991;SDS011;2010;48.194;16.394;2023-02-01T02:38:10;1.93;;;1.83;;
3991;SDS011;2010;48.194;16.394;2023-02-01T02:40:55;2.40;;;2.20;;
3991;SDS011;2010;48.194;16.394;2023-02-01T02:43:31;2.33;;;2.23;;
3991;SDS011;2010;48.194;16.394;2023-02-01T02:46:21;3.13;;;2.70;;
3991;SDS011;2010;48.194;16.394;2023-02-01T02:49:18;2.70;;;2.50;;
3991;SDS011;2010;48.194;16.394;2023-02-01T02:51:49;2.60;;;2.40;;
3991;SDS011;2010;48.194;16.394;2023-02-01T02:54:45;4.00;;;2.90;;
3991;SDS011;2010;48.194;16.394;2023-02-01T02:57:18;2.30;;;2.13;;
3991;SDS011;2010;48.194;16.394;2023-02-01T03:00:08;2.33;;;2.23;;
3991;SDS011;2010;48.194;16.394;2023-02-01T03:02:59;2.33;;;2.23;;
3991;SDS011;2010;48.194;16.394;2023-02-01T03:05:49;2.37;;;2.27;;
3991;SDS011;2010;48.194;16.394;2023-02-01T03:08:21;2.33;;;2.13;;
3991;SDS011;2010;48.194;16.394;2023-02-01T03:10:53;2.90;;;2.30;;
3991;SDS011;2010;48.194;16.394;2023-02-01T03:13:26;2.10;;;2.00;;
3991;SDS011;2010;48.194;16.394;2023-02-01T03:16:04;6.60;;;2.43;;
3991;SDS011;2010;48.194;16.394;2023-02-01T03:18:38;1.97;;;1.87;;
3991;SDS011;2010;48.194;16.394;2023-02-01T03:21:16;2.23;;;2.13;;
3991;SDS011;2010;48.194;16.394;2023-02-01T03:23:55;2.60;;;2.40;;
3991;SDS011;2010;48.194;16.394;2023-02-01T03:26:25;2.80;;;2.60;;
3991;SDS011;2010;48.194;16.394;2023-02-01T03:29:02;2.67;;;2.47;;
3991;SDS011;2010;48.194;16.394;2023-02-01T03:31:44;2.73;;;2.53;;
3991;SDS011;2010;48.194;16.394;2023-02-01T03:34:12;2.60;;;2.40;;
3991;SDS011;2010;48.194;16.394;2023-02-01T03:36:48;3.03;;;2.60;;
3991;SDS011;2010;48.194;16.394;2023-02-01T03:39:22;2.60;;;2.50;;
3991;SDS011;2010;48.194;16.394;2023-02-01T03:41:57;2.70;;;2.50;;
3991;SDS011;2010;48.194;16.394;2023-02-01T03:44:29;4.27;;;2.60;;
3991;SDS011;2010;48.194;16.394;2023-02-01T03:47:03;2.30;;;2.20;;
3991;SDS011;2010;48.194;16.394;2023-02-01T03:49:36;3.63;;;2.73;;
3991;SDS011;2010;48.194;16.394;2023-02-01T03:52:27;4.53;;;2.83;;
3991;SDS011;2010;48.194;16.394;2023-02-01T03:54:59;2.53;;;2.30;;
3991;SDS011;2010;48.194;16.394;2023-02-01T03:57:40;2.80;;;2.57;;
3991;SDS011;2010;48.194;16.394;2023-02-01T04:00:15;3.30;;;3.10;;
3991;SDS011;2010;48.194;16.394;2023-02-01T04:02:57;3.83;;;3.00;;
3991;SDS011;2010;48.194;16.394;2023-02-01T04:05:25;3.10;;;2.87;;
3991;SDS011;2010;48.194;16.394;2023-02-01T04:08:04;3.43;;;3.00;;
3991;SDS011;2010;48.194;16.394;2023-02-01T04:10:38;3.37;;;3.07;;
3991;SDS011;2010;48.194;16.394;2023-02-01T04:13:09;3.47;;;3.20;;
3991;SDS011;2010;48.194;16.394;2023-02-01T04:15:40;3.43;;;3.17;;
3991;SDS011;2010;48.194;16.394;2023-02-01T04:18:12;3.63;;;3.33;;
3991;SDS011;2010;48.194;16.394;2023-02-01T04:20:45;3.53;;;3.27;;
3991;SDS011;2010;48.194;16.394;2023-02-01T04:23:16;3.83;;;3.40;;
3991;SDS011;2010;48.194;16.394;2023-02-01T04:25:51;3.83;;;3.50;;
3991;SDS011;2010;48.194;16.394;2023-02-01T04:28:21;4.63;;;3.50;;
3991;SDS011;2010;48.194;16.394;2023-02-01T04:30:53;4.30;;;3.90;;
3991;SDS011;2010;48.194;16.394;2023-02-01T04:33:27;3.23;;;2.93;;
3991;SDS011;2010;48.194;16.394;2023-02-01T04:35:59;6.60;;;3.20;;
3991;SDS011;2010;48.194;16.394;2023-02-01T04:38:35;6.47;;;3.83;;
3991;SDS011;2010;48.194;16.394;2023-02-01T04:41:07;3.90;;;3.50;;
3991;SDS011;2010;48.194;16.394;2023-02-01T04:43:41;6.87;;;3.73;;
3991;SDS011;2010;48.194;16.394;2023-02-01T04:46:09;6.60;;;3.77;;
3991;SDS011;2010;48.194;16.394;2023-02-01T04:48:40;3.70;;;3.40;;
3991;SDS011;2010;48.194;16.394;2023-02-01T04:51:10;3.93;;;3.63;;
3991;SDS011;2010;48.194;16.394;2023-02-01T04:53:44;5.40;;;4.43;;
3991;SDS011;2010;48.194;16.394;2023-02-01T04:56:22;3.90;;;3.53;;
3991;SDS011;2010;48.194;16.394;2023-02-01T04:58:52;3.90;;;3.60;;
3991;SDS011;2010;48.194;16.394;2023-02-01T05:01:26;5.97;;;3.63;;
3991;SDS011;2010;48.194;16.394;2023-02-01T05:03:55;5.20;;;3.20;;
3991;SDS011;2010;48.194;16.394;2023-02-01T05:06:25;3.50;;;3.30;;
3991;SDS011;2010;48.194;16.394;2023-02-01T05:08:58;4.40;;;3.50;;
3991;SDS011;2010;48.194;16.394;2023-02-01T05:11:37;4.87;;;3.53;;
3991;SDS011;2010;48.194;16.394;2023-02-01T05:14:35;4.00;;;3.60;;
3991;SDS011;2010;48.194;16.394;2023-02-01T05:17:07;3.93;;;3.60;;
3991;SDS011;2010;48.194;16.394;2023-02-01T05:19:37;4.30;;;3.47;;
3991;SDS011;2010;48.194;16.394;2023-02-01T05:22:10;3.70;;;3.40;;
3991;SDS011;2010;48.194;16.394;2023-02-01T05:24:45;4.40;;;3.80;;
3991;SDS011;2010;48.194;16.394;2023-02-01T05:27:17;8.37;;;3.87;;
3991;SDS011;2010;48.194;16.394;2023-02-01T05:29:52;3.93;;;3.47;;
3991;SDS011;2010;48.194;16.394;2023-02-01T05:32:25;4.10;;;3.60;;
3991;SDS011;2010;48.194;16.394;2023-02-01T05:34:55;4.73;;;3.20;;
3991;SDS011;2010;48.194;16.394;2023-02-01T05:37:26;4.33;;;3.93;;
3991;SDS011;2010;48.194;16.394;2023-02-01T05:39:55;5.57;;;4.20;;
3991;SDS011;2010;48.194;16.394;2023-02-01T05:42:26;5.17;;;3.90;;
3991;SDS011;2010;48.194;16.394;2023-02-01T05:44:55;9.50;;;4.03;;
3991;SDS011;2010;48.194;16.394;2023-02-01T05:47:24;4.43;;;4.00;;
3991;SDS011;2010;48.194;16.394;2023-02-01T05:49:54;3.83;;;3.53;;
3991;SDS011;2010;48.194;16.394;2023-02-01T05:52:23;4.70;;;4.30;;
3991;SDS011;2010;48.194;16.394;2023-02-01T05:54:53;7.73;;;3.80;;
3991;SDS011;2010;48.194;16.394;2023-02-01T05:57:23;3.40;;;3.20;;
3991;SDS011;2010;48.194;16.394;2023-02-01T06:00:00;3.10;;;2.80;;
3991;SDS011;2010;48.194;16.394;2023-02-01T06:02:52;3.43;;;3.23;;
3991;SDS011;2010;48.194;16.394;2023-02-01T06:05:24;3.67;;;3.30;;
3991;SDS011;2010;48.194;16.394;2023-02-01T06:08:01;3.50;;;3.17;;
3991;SDS011;2010;48.194;16.394;2023-02-01T06:10:29;3.70;;;3.40;;
3991;SDS011;2010;48.194;16.394;2023-02-01T06:13:06;4.30;;;4.00;;
3991;SDS011;2010;48.194;16.394;2023-02-01T06:15:41;4.07;;;3.60;;
3991;SDS011;2010;48.194;16.394;2023-02-01T06:18:14;5.50;;;3.60;;
3991;SDS011;2010;48.194;16.394;2023-02-01T06:20:51;4.70;;;3.90;;
3991;SDS011;2010;48.194;16.394;2023-02-01T06:23:22;4.40;;;4.00;;
3991;SDS011;2010;48.194;16.394;2023-02-01T06:25:58;4.07;;;3.77;;
3991;SDS011;2010;48.194;16.394;2023-02-01T06:28:32;4.20;;;3.80;;
3991;SDS011;2010;48.194;16.394;2023-02-01T06:31:05;4.00;;;3.60;;
3991;SDS011;2010;48.194;16.394;2023-02-01T06:33:42;4.50;;;4.10;;
3991;SDS011;2010;48.194;16.394;2023-02-01T06:36:15;5.00;;;4.10;;
3991;SDS011;2010;48.194;16.394;2023-02-01T06:39:01;4.03;;;3.70;;
3991;SDS011;2010;48.194;16.394;2023-02-01T06:41:45;3.97;;;3.67;;
3991;SDS011;2010;48.194;16.394;2023-02-01T06:44:22;4.50;;;3.50;;
3991;SDS011;2010;48.194;16.394;2023-02-01T06:46:56;5.13;;;3.90;;
3991;SDS011;2010;48.194;16.394;2023-02-01T06:49:28;4.90;;;4.03;;
3991;SDS011;2010;48.194;16.394;2023-02-01T06:51:56;5.07;;;3.83;;
3991;SDS011;2010;48.194;16.394;2023-02-01T06:54:28;7.60;;;4.50;;
3991;SDS011;2010;48.194;16.394;2023-02-01T06:57:05;4.60;;;4.13;;
3991;SDS011;2010;48.194;16.394;2023-02-01T06:59:36;5.20;;;4.13;;
3991;SDS011;2010;48.194;16.394;2023-02-01T07:02:08;4.60;;;3.50;;
3991;SDS011;2010;48.194;16.394;2023-02-01T07:04:39;3.80;;;3.50;;
3991;SDS011;2010;48.194;16.394;2023-02-01T07:07:08;4.28;;;3.88;;
3991;SDS011;2010;48.194;16.394;2023-02-01T07:09:38;4.30;;;3.90;;
3991;SDS011;2010;48.194;16.394;2023-02-01T07:12:11;4.23;;;3.60;;
3991;SDS011;2010;48.194;16.394;2023-02-01T07:14:43;3.30;;;3.00;;
3991;SDS011;2010;48.194;16.394;2023-02-01T07:17:31;3.23;;;2.93;;
3991;SDS011;2010;48.194;16.394;2023-02-01T07:20:03;3.80;;;3.17;;
3991;SDS011;2010;48.194;16.394;2023-02-01T07:22:38;16.23;;;9.27;;
3991;SDS011;2010;48.194;16.394;2023-02-01T07:25:12;4.43;;;4.03;;
3991;SDS011;2010;48.194;16.394;2023-02-01T07:27:48;5.10;;;3.63;;
3991;SDS011;2010;48.194;16.394;2023-02-01T07:30:19;5.67;;;3.50;;
3991;SDS011;2010;48.194;16.394;2023-02-01T07:32:55;3.93;;;3.63;;
3991;SDS011;2010;48.194;16.394;2023-02-01T07:35:30;4.30;;;3.80;;
3991;SDS011;2010;48.194;16.394;2023-02-01T07:38:00;4.07;;;3.70;;
3991;SDS011;2010;48.194;16.394;2023-02-01T07:40:32;4.93;;;4.13;;
3991;SDS011;2010;48.194;16.394;2023-02-01T07:43:02;5.40;;;4.50;;
3991;SDS011;2010;48.194;16.394;2023-02-01T07:45:41;12.20;;;6.07;;
3991;SDS011;2010;48.194;16.394;2023-02-01T07:48:15;6.17;;;4.53;;
3991;SDS011;2010;48.194;16.394;2023-02-01T07:51:02;4.83;;;3.53;;
3991;SDS011;2010;48.194;16.394;2023-02-01T07:53:34;3.93;;;3.50;;
3991;SDS011;2010;48.194;16.394;2023-02-01T07:56:10;6.30;;;3.90;;
3991;SDS011;2010;48.194;16.394;2023-02-01T07:58:40;4.30;;;3.70;;
3991;SDS011;2010;48.194;16.394;2023-02-01T08:01:13;4.13;;;3.77;;
3991;SDS011;2010;48.194;16.394;2023-02-01T08:03:57;4.17;;;3.77;;
3991;SDS011;2010;48.194;16.394;2023-02-01T08:06:30;3.60;;;3.30;;
3991;SDS011;2010;48.194;16.394;2023-02-01T08:09:03;3.93;;;3.60;;
3991;SDS011;2010;48.194;16.394;2023-02-01T08:11:32;4.20;;;3.80;;
3991;SDS011;2010;48.194;16.394;2023-02-01T08:14:01;5.87;;;4.00;;
3991;SDS011;2010;48.194;16.394;2023-02-01T08:16:33;4.27;;;3.87;;
3991;SDS011;2010;48.194;16.394;2023-02-01T08:19:12;4.57;;;4.17;;
3991;SDS011;2010;48.194;16.394;2023-02-01T08:21:42;4.70;;;4.30;;
3991;SDS011;2010;48.194;16.394;2023-02-01T08:24:18;4.60;;;4.03;;
3991;SDS011;2010;48.194;16.394;2023-02-01T08:26:53;4.00;;;3.70;;
3991;SDS011;2010;48.194;16.394;2023-02-01T08:29:25;3.90;;;3.60;;
3991;SDS011;2010;48.194;16.394;2023-02-01T08:31:55;4.50;;;4.17;;
3991;SDS011;2010;48.194;16.394;2023-02-01T08:34:33;4.63;;;4.23;;
3991;SDS011;2010;48.194;16.394;2023-02-01T08:37:03;7.50;;;4.40;;
3991;SDS011;2010;48.194;16.394;2023-02-01T08:39:32;6.23;;;4.00;;
3991;SDS011;2010;48.194;16.394;2023-02-01T08:42:01;5.33;;;4.30;;
3991;SDS011;2010;48.194;16.394;2023-02-01T08:44:48;5.40;;;4.13;;
3991;SDS011;2010;48.194;16.394;2023-02-01T08:47:19;5.40;;;4.50;;
3991;SDS011;2010;48.194;16.394;2023-02-01T08:50:02;6.47;;;4.67;;
3991;SDS011;2010;48.194;16.394;2023-02-01T08:52:39;5.23;;;4.53;;
3991;SDS011;2010;48.194;16.394;2023-02-01T08:55:09;4.67;;;4.27;;
3991;SDS011;2010;48.194;16.394;2023-02-01T08:57:41;5.20;;;4.27;;
3991;SDS011;2010;48.194;16.394;2023-02-01T09:00:13;5.47;;;4.47;;
3991;SDS011;2010;48.194;16.394;2023-02-01T09:02:50;5.03;;;4.13;;
3991;SDS011;2010;48.194;16.394;2023-02-01T09:05:31;7.47;;;4.00;;
3991;SDS011;2010;48.194;16.394;2023-02-01T09:08:15;4.43;;;3.90;;
3991;SDS011;2010;48.194;16.394;2023-02-01T09:10:49;6.10;;;3.70;;
3991;SDS011;2010;48.194;16.394;2023-02-01T09:13:18;6.20;;;3.70;;
3991;SDS011;2010;48.194;16.394;2023-02-01T09:15:53;4.77;;;3.90;;
3991;SDS011;2010;48.194;16.394;2023-02-01T09:18:23;4.50;;;3.60;;
3991;SDS011;2010;48.194;16.394;2023-02-01T09:20:56;5.03;;;4.43;;
3991;SDS011;2010;48.194;16.394;2023-02-01T09:23:27;4.27;;;3.83;;
3991;SDS011;2010;48.194;16.394;2023-02-01T09:26:04;6.73;;;4.10;;
3991;SDS011;2010;48.194;16.394;2023-02-01T09:28:38;7.23;;;3.80;;
3991;SDS011;2010;48.194;16.394;2023-02-01T09:31:07;4.17;;;3.77;;
3991;SDS011;2010;48.194;16.394;2023-02-01T09:33:42;4.50;;;4.03;;
3991;SDS011;2010;48.194;16.394;2023-02-01T09:36:21;3.77;;;3.47;;
3991;SDS011;2010;48.194;16.394;2023-02-01T09:38:55;5.50;;;4.47;;
3991;SDS011;2010;48.194;16.394;2023-02-01T09:44:22;5.80;;;4.03;;
3991;SDS011;2010;48.194;16.394;2023-02-01T09:47:11;4.37;;;3.23;;
3991;SDS011;2010;48.194;16.394;2023-02-01T09:49:43;3.63;;;3.30;;
3991;SDS011;2010;48.194;16.394;2023-02-01T09:52:23;5.30;;;3.73;;
3991;SDS011;2010;48.194;16.394;2023-02-01T09:55:01;4.10;;;3.70;;
3991;SDS011;2010;48.194;16.394;2023-02-01T09:57:45;3.73;;;3.20;;
3991;SDS011;2010;48.194;16.394;2023-02-01T10:00:22;5.27;;;3.87;;
3991;SDS011;2010;48.194;16.394;2023-02-01T10:02:56;5.07;;;4.00;;
3991;SDS011;2010;48.194;16.394;2023-02-01T10:05:38;5.43;;;3.50;;
3991;SDS011;2010;48.194;16.394;2023-02-01T10:08:16;5.53;;;4.10;;
3991;SDS011;2010;48.194;16.394;2023-02-01T10:10:50;8.70;;;4.30;;
3991;SDS011;2010;48.194;16.394;2023-02-01T10:13:29;4.97;;;3.07;;
3991;SDS011;2010;48.194;16.394;2023-02-01T10:16:11;6.60;;;5.70;;
3991;SDS011;2010;48.194;16.394;2023-02-01T10:18:52;4.20;;;3.90;;
3991;SDS011;2010;48.194;16.394;2023-02-01T10:21:43;13.90;;;6.30;;
3991;SDS011;2010;48.194;16.394;2023-02-01T10:24:27;9.57;;;5.60;;
3991;SDS011;2010;48.194;16.394;2023-02-01T10:27:13;5.63;;;4.50;;
3991;SDS011;2010;48.194;16.394;2023-02-01T10:29:55;9.10;;;4.87;;
3991;SDS011;2010;48.194;16.394;2023-02-01T10:35:21;4.07;;;3.60;;
3991;SDS011;2010;48.194;16.394;2023-02-01T10:40:47;2.60;;;2.40;;
3991;SDS011;2010;48.194;16.394;2023-02-01T10:43:19;2.83;;;2.23;;
3991;SDS011;2010;48.194;16.394;2023-02-01T10:45:49;2.60;;;2.40;;
3991;SDS011;2010;48.194;16.394;2023-02-01T10:48:21;9.90;;;4.77;;
3991;SDS011;2010;48.194;16.394;2023-02-01T10:50:53;6.50;;;3.93;;
3991;SDS011;2010;48.194;16.394;2023-02-01T10:53:25;3.57;;;3.03;;
3991;SDS011;2010;48.194;16.394;2023-02-01T10:56:04;7.40;;;5.10;;
3991;SDS011;2010;48.194;16.394;2023-02-01T10:58:36;11.30;;;4.40;;
3991;SDS011;2010;48.194;16.394;2023-02-01T11:01:15;6.60;;;4.40;;
3991;SDS011;2010;48.194;16.394;2023-02-01T11:03:52;5.63;;;3.57;;
3991;SDS011;2010;48.194;16.394;2023-02-01T11:06:24;4.30;;;3.53;;
3991;SDS011;2010;48.194;16.394;2023-02-01T11:09:01;7.03;;;3.90;;
3991;SDS011;2010;48.194;16.394;2023-02-01T11:11:54;8.17;;;5.10;;
3991;SDS011;2010;48.194;16.394;2023-02-01T11:14:34;6.40;;;4.50;;
3991;SDS011;2010;48.194;16.394;2023-02-01T11:17:16;4.40;;;3.63;;
3991;SDS011;2010;48.194;16.394;2023-02-01T11:19:55;4.43;;;3.50;;
3991;SDS011;2010;48.194;16.394;2023-02-01T11:22:28;6.57;;;4.03;;
3991;SDS011;2010;48.194;16.394;2023-02-01T11:24:57;4.23;;;3.93;;
3991;SDS011;2010;48.194;16.394;2023-02-01T11:27:47;8.47;;;4.50;;
3991;SDS011;2010;48.194;16.394;2023-02-01T11:30:24;6.53;;;4.43;;
3991;SDS011;2010;48.194;16.394;2023-02-01T11:33:06;10.80;;;4.40;;
3991;SDS011;2010;48.194;16.394;2023-02-01T11:35:38;7.90;;;4.93;;
3991;SDS011;2010;48.194;16.394;2023-02-01T11:38:17;14.80;;;7.80;;
3991;SDS011;2010;48.194;16.394;2023-02-01T11:40:51;7.80;;;4.70;;
3991;SDS011;2010;48.194;16.394;2023-02-01T11:43:27;6.70;;;5.43;;
3991;SDS011;2010;48.194;16.394;2023-02-01T11:45:57;9.77;;;6.37;;
3991;SDS011;2010;48.194;16.394;2023-02-01T11:48:36;14.73;;;6.93;;
3991;SDS011;2010;48.194;16.394;2023-02-01T11:51:19;6.27;;;4.90;;
3991;SDS011;2010;48.194;16.394;2023-02-01T11:56:54;12.57;;;6.83;;
3991;SDS011;2010;48.194;16.394;2023-02-01T11:59:43;8.37;;;5.43;;
3991;SDS011;2010;48.194;16.394;2023-02-01T12:02:38;11.07;;;5.73;;
3991;SDS011;2010;48.194;16.394;2023-02-01T12:05:38;9.97;;;6.07;;
3991;SDS011;2010;48.194;16.394;2023-02-01T12:08:22;5.03;;;4.17;;
3991;SDS011;2010;48.194;16.394;2023-02-01T12:11:17;9.90;;;7.57;;
3991;SDS011;2010;48.194;16.394;2023-02-01T12:14:27;5.80;;;4.83;;
3991;SDS011;2010;48.194;16.394;2023-02-01T12:17:18;7.03;;;5.87;;
3991;SDS011;2010;48.194;16.394;2023-02-01T12:20:21;6.27;;;4.70;;
3991;SDS011;2010;48.194;16.394;2023-02-01T12:23:33;5.40;;;4.47;;
3991;SDS011;2010;48.194;16.394;2023-02-01T12:29:29;9.30;;;5.53;;
3991;SDS011;2010;48.194;16.394;2023-02-01T12:32:28;8.00;;;5.57;;
3991;SDS011;2010;48.194;16.394;2023-02-01T12:38:08;5.87;;;3.83;;
3991;SDS011;2010;48.194;16.394;2023-02-01T12:40:52;5.90;;;3.70;;
3991;SDS011;2010;48.194;16.394;2023-02-01T12:43:34;8.33;;;5.97;;
3991;SDS011;2010;48.194;16.394;2023-02-01T12:46:14;2.63;;;2.43;;
3991;SDS011;2010;48.194;16.394;2023-02-01T12:48:54;7.27;;;4.43;;
3991;SDS011;2010;48.194;16.394;2023-02-01T12:51:29;7.07;;;4.63;;
3991;SDS011;2010;48.194;16.394;2023-02-01T12:54:04;6.50;;;3.80;;
3991;SDS011;2010;48.194;16.394;2023-02-01T12:56:44;7.00;;;5.40;;
3991;SDS011;2010;48.194;16.394;2023-02-01T12:59:24;3.60;;;3.17;;
3991;SDS011;2010;48.194;16.394;2023-02-01T13:02:01;8.80;;;5.57;;
3991;SDS011;2010;48.194;16.394;2023-02-01T13:04:49;2.40;;;2.20;;
3991;SDS011;2010;48.194;16.394;2023-02-01T13:07:28;2.10;;;1.87;;
3991;SDS011;2010;48.194;16.394;2023-02-01T13:10:03;3.03;;;2.83;;
3991;SDS011;2010;48.194;16.394;2023-02-01T13:12:43;1.80;;;1.70;;
3991;SDS011;2010;48.194;16.394;2023-02-01T13:15:21;2.40;;;2.17;;
3991;SDS011;2010;48.194;16.394;2023-02-01T13:17:52;3.40;;;2.60;;
3991;SDS011;2010;48.194;16.394;2023-02-01T13:20:36;2.73;;;2.50;;
3991;SDS011;2010;48.194;16.394;2023-02-01T13:23:10;2.70;;;2.50;;
3991;SDS011;2010;48.194;16.394;2023-02-01T13:25:47;2.67;;;2.47;;
3991;SDS011;2010;48.194;16.394;2023-02-01T13:28:25;2.47;;;2.27;;
3991;SDS011;2010;48.194;16.394;2023-02-01T13:31:17;3.00;;;2.63;;
3991;SDS011;2010;48.194;16.394;2023-02-01T13:34:00;6.13;;;1.80;;
3991;SDS011;2010;48.194;16.394;2023-02-01T13:37:01;4.63;;;1.63;;
3991;SDS011;2010;48.194;16.394;2023-02-01T13:39:48;1.50;;;1.40;;
3991;SDS011;2010;48.194;16.394;2023-02-01T13:42:48;1.73;;;1.30;;
3991;SDS011;2010;48.194;16.394;2023-02-01T13:45:27;1.90;;;1.80;;
3991;SDS011;2010;48.194;16.394;2023-02-01T13:48:02;2.70;;;1.77;;
3991;SDS011;2010;48.194;16.394;2023-02-01T13:50:35;3.20;;;2.83;;
3991;SDS011;2010;48.194;16.394;2023-02-01T13:53:14;1.53;;;1.43;;
3991;SDS011;2010;48.194;16.394;2023-02-01T13:56:01;3.93;;;2.37;;
3991;SDS011;2010;48.194;16.394;2023-02-01T13:58:34;2.80;;;2.30;;
3991;SDS011;2010;48.194;16.394;2023-02-01T14:04:06;1.73;;;1.63;;
3991;SDS011;2010;48.194;16.394;2023-02-01T14:07:15;3.70;;;3.03;;
3991;SDS011;2010;48.194;16.394;2023-02-01T14:09:52;5.33;;;2.80;;
3991;SDS011;2010;48.194;16.394;2023-02-01T14:15:25;3.70;;;2.13;;
3991;SDS011;2010;48.194;16.394;2023-02-01T14:17:58;4.63;;;3.27;;
3991;SDS011;2010;48.194;16.394;2023-02-01T14:23:28;2.37;;;1.80;;
3991;SDS011;2010;48.194;16.394;2023-02-01T14:28:59;3.27;;;2.10;;
3991;SDS011;2010;48.194;16.394;2023-02-01T14:31:32;3.33;;;2.10;;
3991;SDS011;2010;48.194;16.394;2023-02-01T14:34:26;2.13;;;1.87;;
3991;SDS011;2010;48.194;16.394;2023-02-01T14:37:11;1.40;;;1.30;;
3991;SDS011;2010;48.194;16.394;2023-02-01T14:39:57;1.87;;;1.77;;
3991;SDS011;2010;48.194;16.394;2023-02-01T14:42:36;1.73;;;1.50;;
3991;SDS011;2010;48.194;16.394;2023-02-01T14:51:25;2.93;;;1.67;;
3991;SDS011;2010;48.194;16.394;2023-02-01T14:54:00;1.73;;;1.20;;
3991;SDS011;2010;48.194;16.394;2023-02-01T14:56:45;2.40;;;0.77;;
3991;SDS011;2010;48.194;16.394;2023-02-01T14:59:27;1.93;;;1.00;;
3991;SDS011;2010;48.194;16.394;2023-02-01T15:02:07;1.50;;;1.30;;
3991;SDS011;2010;48.194;16.394;2023-02-01T15:04:53;1.30;;;1.20;;
3991;SDS011;2010;48.194;16.394;2023-02-01T15:07:29;1.37;;;1.00;;
3991;SDS011;2010;48.194;16.394;2023-02-01T15:10:00;1.60;;;1.50;;
3991;SDS011;2010;48.194;16.394;2023-02-01T15:12:34;1.50;;;1.30;;
3991;SDS011;2010;48.194;16.394;2023-02-01T15:15:17;1.40;;;1.30;;
3991;SDS011;2010;48.194;16.394;2023-02-01T15:17:51;2.47;;;1.73;;
3991;SDS011;2010;48.194;16.394;2023-02-01T15:20:23;1.47;;;1.37;;
3991;SDS011;2010;48.194;16.394;2023-02-01T15:22:54;1.50;;;1.40;;
3991;SDS011;2010;48.194;16.394;2023-02-01T15:25:27;3.53;;;1.60;;
3991;SDS011;2010;48.194;16.394;2023-02-01T15:28:09;2.93;;;2.20;;
3991;SDS011;2010;48.194;16.394;2023-02-01T15:30:56;1.90;;;1.80;;
3991;SDS011;2010;48.194;16.394;2023-02-01T15:33:29;1.53;;;1.43;;
3991;SDS011;2010;48.194;16.394;2023-02-01T15:36:07;1.97;;;1.60;;
3991;SDS011;2010;48.194;16.394;2023-02-01T15:38:44;1.70;;;1.60;;
3991;SDS011;2010;48.194;16.394;2023-02-01T15:41:17;1.77;;;1.60;;
3991;SDS011;2010;48.194;16.394;2023-02-01T15:44:03;6.37;;;2.20;;
3991;SDS011;2010;48.194;16.394;2023-02-01T15:46:38;2.90;;;1.90;;
3991;SDS011;2010;48.194;16.394;2023-02-01T15:49:19;3.30;;;2.03;;
3991;SDS011;2010;48.194;16.394;2023-02-01T15:51:54;1.93;;;1.83;;
3991;SDS011;2010;48.194;16.394;2023-02-01T15:54:24;2.20;;;1.93;;
3991;SDS011;2010;48.194;16.394;2023-02-01T15:56:54;3.50;;;2.77;;
3991;SDS011;2010;48.194;16.394;2023-02-01T15:59:29;3.33;;;2.10;;
3991;SDS011;2010;48.194;16.394;2023-02-01T16:05:25;3.60;;;1.90;;
3991;SDS011;2010;48.194;16.394;2023-02-01T16:08:06;10.03;;;2.47;;
3991;SDS011;2010;48.194;16.394;2023-02-01T16:10:43;3.77;;;1.77;;
3991;SDS011;2010;48.194;16.394;2023-02-01T16:13:14;3.03;;;1.90;;
3991;SDS011;2010;48.194;16.394;2023-02-01T16:15:54;5.57;;;2.30;;
3991;SDS011;2010;48.194;16.394;2023-02-01T16:18:23;2.87;;;2.23;;
3991;SDS011;2010;48.194;16.394;2023-02-01T16:21:03;5.57;;;2.27;;
3991;SDS011;2010;48.194;16.394;2023-02-01T16:23:36;5.47;;;2.20;;
3991;SDS011;2010;48.194;16.394;2023-02-01T16:26:09;2.77;;;1.80;;
3991;SDS011;2010;48.194;16.394;2023-02-01T16:28:43;4.67;;;2.33;;
3991;SDS011;2010;48.194;16.394;2023-02-01T16:31:18;5.43;;;2.73;;
3991;SDS011;2010;48.194;16.394;2023-02-01T16:33:52;3.67;;;2.10;;
3991;SDS011;2010;48.194;16.394;2023-02-01T16:36:34;2.13;;;2.00;;
3991;SDS011;2010;48.194;16.394;2023-02-01T16:39:09;4.20;;;2.30;;
3991;SDS011;2010;48.194;16.394;2023-02-01T16:41:45;4.40;;;1.90;;
3991;SDS011;2010;48.194;16.394;2023-02-01T16:44:21;2.90;;;1.83;;
3991;SDS011;2010;48.194;16.394;2023-02-01T16:46:55;2.60;;;2.10;;
3991;SDS011;2010;48.194;16.394;2023-02-01T16:49:24;5.20;;;2.40;;